Aviation Digital Data Service (ADDS)

Output produced by METARs form (1534 UTC 20 March 2019)
found at http://www.aviationweather.gov/metar/data/
 
Forecast for: WPDL (DILLI ARPT/TIMOR, TP)
Text: TAF WPDL 200638Z 2008/2020 33008KT 9999 FEW030
Forecast period: 0800 to 1300 UTC 20 March 2019
Forecast type: FROM: standard forecast or significant change
Winds: from the NNW (330 degrees) at 9 MPH (8 knots; 4.1 m/s)
Visibility: 6 or more miles 10+ km)
Ceiling: at least 12,000 feet AGL
Clouds: few clouds at 3000 feet AGL
Weather: no significant weather forecast for this period
Text: FM201300 15006KT 9999 SCT020
Forecast period: 1300 to 2000 UTC 20 March 2019
Forecast type: FROM: standard forecast or significant change
Winds: from the SSE (150 degrees) at 7 MPH (6 knots; 3.1 m/s)
Visibility: 6 or more miles 10+ km)
Ceiling: at least 12,000 feet AGL
Clouds: scattered clouds at 2000 feet AGL
Weather: no significant weather forecast for this period